Time;durP1;ratioP1;P1;durP2;ratioP2;P2;SDS_P1;SDS_P2;PMS_P1;PMS_P2;Temp;Humidity;BMP_temperature;BMP_pressure;BME280_temperature;BME280_humidity;BME280_pressure;Samples;Min_cycle;Max_cycle;Signal;HPM_P1;HPM_P2
2023/04/30 00:02:21;;;;;;;4.28;1.90;;;;;;;;;;5094774;28;20249;-39
2023/04/30 00:04:49;;;;;;;2.35;1.60;;;;;;;;;;5094409;28;20203;-39
2023/04/30 00:07:16;;;;;;;2.78;1.58;;;;;;;;;;5094377;28;20198;-39
2023/04/30 00:09:43;;;;;;;3.33;1.90;;;;;;;;;;5094248;28;20203;-39
2023/04/30 00:12:10;;;;;;;2.50;1.63;;;;;;;;;;5094406;28;20614;-39
2023/04/30 00:14:37;;;;;;;4.18;1.98;;;;;;;;;;5094242;28;20198;-39
2023/04/30 00:17:04;;;;;;;2.53;1.80;;;;;;;;;;5094332;28;20255;-39
2023/04/30 00:19:31;;;;;;;3.00;1.75;;;;;;;;;;5087832;28;20214;-39
2023/04/30 00:22:00;;;;;;;2.58;1.60;;;;;;;;;;5078604;28;20237;-39
2023/04/30 00:24:27;;;;;;;2.65;1.50;;;;;;;;;;5074032;28;20203;-39
2023/04/30 00:26:54;;;;;;;3.35;1.80;;;;;;;;;;5073991;28;20199;-39
2023/04/30 00:29:21;;;;;;;3.28;2.05;;;;;;;;;;5073733;28;20212;-39
2023/04/30 00:31:49;;;;;;;2.75;1.98;;;;;;;;;;5073839;28;20223;-39
2023/04/30 00:34:16;;;;;;;2.92;1.73;;;;;;;;;;5073708;28;20207;-39
2023/04/30 00:36:43;;;;;;;2.58;1.42;;;;;;;;;;5072490;28;20206;-39
2023/04/30 00:39:10;;;;;;;4.15;1.63;;;;;;;;;;5073457;28;20235;-39
2023/04/30 00:41:38;;;;;;;2.85;1.80;;;;;;;;;;5073798;28;20249;-39
2023/04/30 00:44:06;;;;;;;2.60;1.30;;;;;;;;;;5071857;28;20309;-39
2023/04/30 00:46:32;;;;;;;2.00;1.73;;;;;;;;;;5073598;28;20252;-39
2023/04/30 00:49:03;;;;;;;3.40;2.13;;;;;;;;;;5073483;28;20207;-39
2023/04/30 00:51:32;;;;;;;2.70;1.80;;;;;;;;;;5072307;28;20231;-39
2023/04/30 00:54:01;;;;;;;2.22;1.67;;;;;;;;;;5072455;28;20538;-39
2023/04/30 00:56:31;;;;;;;2.17;1.55;;;;;;;;;;5072215;28;20210;-39
2023/04/30 00:58:59;;;;;;;2.95;2.15;;;;;;;;;;5073535;28;20207;-39
2023/04/30 01:01:29;;;;;;;4.85;2.00;;;;;;;;;;5073315;28;20246;-39
2023/04/30 01:03:56;;;;;;;2.83;1.70;;;;;;;;;;5073611;28;20199;-39
2023/04/30 01:06:25;;;;;;;3.55;1.70;;;;;;;;;;5073700;28;20237;-39
2023/04/30 01:08:53;;;;;;;3.83;1.60;;;;;;;;;;5072150;28;20674;-39
2023/04/30 01:11:27;;;;;;;2.83;1.67;;;;;;;;;;5073403;28;20227;-40
2023/04/30 01:14:07;;;;;;;3.88;1.98;;;;;;;;;;5072067;28;20667;-39
2023/04/30 01:17:33;;;;;;;3.35;1.60;;;;;;;;;;5072133;28;20248;-39
2023/04/30 01:20:00;;;;;;;4.10;2.03;;;;;;;;;;5014868;28;20205;-39
2023/04/30 01:22:27;;;;;;;4.25;2.30;;;;;;;;;;5014735;28;20239;-39
2023/04/30 01:25:20;;;;;;;3.88;1.83;;;;;;;;;;5036163;28;20224;-39
2023/04/30 01:28:08;;;;;;;2.42;1.75;;;;;;;;;;4998822;28;20647;-39
2023/04/30 01:30:36;;;;;;;3.13;1.90;;;;;;;;;;5034111;28;20200;-39
2023/04/30 01:33:03;;;;;;;3.53;1.85;;;;;;;;;;5050910;28;20238;-39
2023/04/30 01:36:07;;;;;;;2.33;1.65;;;;;;;;;;5034542;28;20561;-39
2023/04/30 01:39:02;;;;;;;3.10;1.95;;;;;;;;;;5034226;28;20240;-39
2023/04/30 01:42:05;;;;;;;3.38;2.05;;;;;;;;;;5051115;28;20215;-39
2023/04/30 01:44:38;;;;;;;2.70;1.90;;;;;;;;;;5026902;28;20204;-39
2023/04/30 01:47:15;;;;;;;4.57;1.90;;;;;;;;;;5050830;28;20330;-39
2023/04/30 01:50:04;;;;;;;3.47;1.95;;;;;;;;;;5034177;28;20207;-39
2023/04/30 01:52:42;;;;;;;3.78;2.10;;;;;;;;;;5034121;28;20689;-39
2023/04/30 01:55:50;;;;;;;2.55;1.75;;;;;;;;;;5073798;28;20199;-39
2023/04/30 01:58:19;;;;;;;6.32;2.00;;;;;;;;;;5095989;28;20613;-39
2023/04/30 02:00:46;;;;;;;2.78;1.70;;;;;;;;;;5079079;28;20685;-39
2023/04/30 02:03:14;;;;;;;2.90;1.50;;;;;;;;;;5096988;28;20559;-39
2023/04/30 02:05:41;;;;;;;3.75;1.80;;;;;;;;;;5095542;28;20285;-39
2023/04/30 02:08:09;;;;;;;4.00;1.73;;;;;;;;;;5096929;28;20251;-39
2023/04/30 02:10:36;;;;;;;3.05;2.03;;;;;;;;;;5096617;28;20229;-39
2023/04/30 02:13:03;;;;;;;3.65;1.77;;;;;;;;;;5095561;28;20610;-39
2023/04/30 02:15:30;;;;;;;2.63;1.70;;;;;;;;;;5095338;28;20538;-39
2023/04/30 02:17:58;;;;;;;3.80;2.25;;;;;;;;;;5096366;28;20583;-39
2023/04/30 02:20:26;;;;;;;2.72;1.88;;;;;;;;;;5095405;28;20210;-39
2023/04/30 02:22:53;;;;;;;4.45;2.28;;;;;;;;;;5096288;28;20671;-39
2023/04/30 02:25:20;;;;;;;3.83;2.05;;;;;;;;;;5096301;28;20297;-40
2023/04/30 02:27:49;;;;;;;4.22;2.03;;;;;;;;;;5096340;28;20191;-39
2023/04/30 02:30:18;;;;;;;2.83;1.75;;;;;;;;;;5096323;28;20223;-39
2023/04/30 02:32:47;;;;;;;3.05;2.13;;;;;;;;;;5096272;28;20243;-39
2023/04/30 02:35:14;;;;;;;3.20;2.10;;;;;;;;;;5094956;28;20233;-39
2023/04/30 02:37:41;;;;;;;3.00;1.85;;;;;;;;;;5095724;28;20198;-39
2023/04/30 02:40:09;;;;;;;3.40;2.08;;;;;;;;;;5094477;28;20231;-40
2023/04/30 02:42:37;;;;;;;7.55;2.65;;;;;;;;;;5096131;28;20210;-39
2023/04/30 02:45:04;;;;;;;3.30;2.30;;;;;;;;;;5095046;28;20199;-39
2023/04/30 02:47:32;;;;;;;4.05;2.03;;;;;;;;;;5095830;28;20207;-39
2023/04/30 02:49:59;;;;;;;6.25;2.42;;;;;;;;;;5095763;28;20209;-39
2023/04/30 02:52:26;;;;;;;5.13;2.28;;;;;;;;;;5095411;28;20686;-39
2023/04/30 02:54:53;;;;;;;3.50;2.35;;;;;;;;;;5095505;28;20203;-39
2023/04/30 02:57:21;;;;;;;3.83;1.88;;;;;;;;;;5095449;28;20213;-39
2023/04/30 02:59:48;;;;;;;3.80;2.08;;;;;;;;;;5095394;28;20331;-39
2023/04/30 03:02:15;;;;;;;4.15;1.80;;;;;;;;;;5094503;28;20562;-39
2023/04/30 03:04:42;;;;;;;3.90;1.55;;;;;;;;;;5094378;28;20199;-39
2023/04/30 03:07:10;;;;;;;3.60;1.98;;;;;;;;;;5093446;28;20217;-39
2023/04/30 03:09:37;;;;;;;2.10;1.70;;;;;;;;;;5094268;28;20678;-39
2023/04/30 03:12:04;;;;;;;4.45;1.95;;;;;;;;;;5094098;28;20230;-39
2023/04/30 03:14:31;;;;;;;2.60;1.90;;;;;;;;;;5094070;28;20199;-39
2023/04/30 03:16:59;;;;;;;3.92;2.03;;;;;;;;;;5095026;28;20198;-39
2023/04/30 03:19:27;;;;;;;3.90;1.90;;;;;;;;;;5093745;28;20205;-39
2023/04/30 03:21:55;;;;;;;2.90;1.63;;;;;;;;;;5094129;28;20213;-39
2023/04/30 03:24:23;;;;;;;4.03;1.95;;;;;;;;;;5095117;28;20199;-38
2023/04/30 03:26:51;;;;;;;4.43;2.50;;;;;;;;;;5093819;28;20203;-39
2023/04/30 03:29:18;;;;;;;2.10;1.90;;;;;;;;;;5095345;28;20199;-39
2023/04/30 03:31:45;;;;;;;2.58;2.08;;;;;;;;;;5093510;28;20222;-39
2023/04/30 03:34:12;;;;;;;1.80;1.50;;;;;;;;;;5094850;28;20210;-39
2023/04/30 03:36:40;;;;;;;3.78;2.15;;;;;;;;;;5094930;28;20203;-39
2023/04/30 03:39:08;;;;;;;1.88;1.52;;;;;;;;;;5093588;28;20235;-39
2023/04/30 03:41:35;;;;;;;3.88;2.10;;;;;;;;;;5094878;28;20209;-39
2023/04/30 03:44:02;;;;;;;5.53;2.00;;;;;;;;;;5113065;28;20289;-39
2023/04/30 03:46:30;;;;;;;2.38;1.77;;;;;;;;;;5096300;28;20210;-39
2023/04/30 03:48:57;;;;;;;4.78;2.03;;;;;;;;;;5113007;28;20283;-38
2023/04/30 03:51:26;;;;;;;3.10;1.92;;;;;;;;;;5112930;28;20198;-39
2023/04/30 03:53:53;;;;;;;3.22;2.15;;;;;;;;;;5112939;28;20201;-39
2023/04/30 03:56:20;;;;;;;4.82;1.90;;;;;;;;;;5112864;28;20205;-39
2023/04/30 03:58:47;;;;;;;3.22;1.90;;;;;;;;;;5112770;28;20579;-39
2023/04/30 04:01:15;;;;;;;3.22;2.08;;;;;;;;;;5113056;28;20202;-39
2023/04/30 04:03:42;;;;;;;2.33;1.75;;;;;;;;;;5095800;28;20281;-39
2023/04/30 04:06:09;;;;;;;2.38;1.88;;;;;;;;;;5112555;28;20194;-40
2023/04/30 04:08:36;;;;;;;3.30;1.85;;;;;;;;;;5095533;28;20198;-39
2023/04/30 04:11:04;;;;;;;4.40;2.22;;;;;;;;;;5112917;28;20213;-39
2023/04/30 04:13:31;;;;;;;3.90;2.25;;;;;;;;;;5095523;28;20736;-39
2023/04/30 04:15:59;;;;;;;3.35;2.15;;;;;;;;;;5092851;28;20744;-39
2023/04/30 04:18:26;;;;;;;4.93;2.42;;;;;;;;;;5092813;28;20630;-39
2023/04/30 04:20:55;;;;;;;4.57;2.45;;;;;;;;;;5093157;28;20206;-39
2023/04/30 04:23:22;;;;;;;3.97;2.22;;;;;;;;;;5094252;28;20236;-39
2023/04/30 04:25:49;;;;;;;5.47;2.65;;;;;;;;;;5109157;28;20536;-41
2023/04/30 04:28:16;;;;;;;3.88;1.90;;;;;;;;;;5076361;28;20560;-38
2023/04/30 04:30:45;;;;;;;5.40;2.78;;;;;;;;;;5094226;28;20210;-39
2023/04/30 04:33:11;;;;;;;3.13;1.92;;;;;;;;;;5092771;28;20226;-39
2023/04/30 04:35:39;;;;;;;4.32;2.28;;;;;;;;;;5094022;28;20207;-39
2023/04/30 04:38:06;;;;;;;5.00;2.15;;;;;;;;;;5092312;28;20605;-42
2023/04/30 04:40:36;;;;;;;5.40;2.63;;;;;;;;;;5092056;28;20199;-39
2023/04/30 04:43:03;;;;;;;3.50;2.20;;;;;;;;;;5121354;27;20222;-40
2023/04/30 04:45:32;;;;;;;3.75;2.30;;;;;;;;;;5086712;28;20300;-39
2023/04/30 04:47:59;;;;;;;4.90;1.90;;;;;;;;;;5088015;28;20258;-40
2023/04/30 04:50:26;;;;;;;3.45;2.10;;;;;;;;;;5088597;28;20576;-41
2023/04/30 04:52:53;;;;;;;5.20;2.10;;;;;;;;;;5090670;28;20238;-41
2023/04/30 04:55:22;;;;;;;4.05;2.30;;;;;;;;;;5087181;28;20589;-39
2023/04/30 04:57:49;;;;;;;5.75;2.15;;;;;;;;;;5089523;28;20218;-39
2023/04/30 05:00:17;;;;;;;3.10;2.00;;;;;;;;;;5090263;28;20211;-40
2023/04/30 05:02:44;;;;;;;3.83;2.17;;;;;;;;;;5090341;28;20283;-40
2023/04/30 05:05:12;;;;;;;4.50;2.25;;;;;;;;;;5085631;28;20210;-40
2023/04/30 05:07:39;;;;;;;4.63;2.53;;;;;;;;;;5086521;28;20310;-39
2023/04/30 05:10:07;;;;;;;6.43;2.22;;;;;;;;;;5088970;28;20272;-40
2023/04/30 05:12:34;;;;;;;4.53;2.05;;;;;;;;;;5085659;28;20233;-39
2023/04/30 05:15:03;;;;;;;5.93;2.40;;;;;;;;;;5092529;28;20242;-39
2023/04/30 05:17:30;;;;;;;5.22;2.30;;;;;;;;;;5089473;28;20222;-39
2023/04/30 05:19:57;;;;;;;3.70;2.40;;;;;;;;;;5086786;28;20230;-41
2023/04/30 05:22:24;;;;;;;4.22;2.40;;;;;;;;;;5089366;28;20219;-40
2023/04/30 05:24:51;;;;;;;5.10;2.42;;;;;;;;;;5090093;28;20780;-40
2023/04/30 05:27:18;;;;;;;4.43;2.70;;;;;;;;;;5089384;28;20715;-38
2023/04/30 05:29:46;;;;;;;4.65;2.33;;;;;;;;;;5089787;28;20738;-40
2023/04/30 05:32:13;;;;;;;6.38;2.60;;;;;;;;;;5093046;28;20233;-40
2023/04/30 05:34:40;;;;;;;7.95;3.38;;;;;;;;;;5074198;28;20231;-39
2023/04/30 05:37:07;;;;;;;5.88;2.50;;;;;;;;;;5074168;28;20245;-39
2023/04/30 05:39:34;;;;;;;5.25;2.92;;;;;;;;;;5086059;28;20276;-40
2023/04/30 05:42:02;;;;;;;5.38;2.85;;;;;;;;;;5093938;28;20234;-40
2023/04/30 05:44:29;;;;;;;6.47;3.20;;;;;;;;;;5094112;28;20323;-39
2023/04/30 05:46:56;;;;;;;4.35;3.00;;;;;;;;;;5094136;28;20237;-40
2023/04/30 05:49:25;;;;;;;6.63;3.47;;;;;;;;;;5093248;28;20690;-40
2023/04/30 05:51:52;;;;;;;6.55;3.65;;;;;;;;;;5093800;28;20718;-39
2023/04/30 05:54:19;;;;;;;7.70;3.13;;;;;;;;;;5093765;28;20218;-40
2023/04/30 05:56:46;;;;;;;6.78;4.07;;;;;;;;;;5078409;28;20707;-39
2023/04/30 05:59:14;;;;;;;7.32;3.50;;;;;;;;;;5087891;28;20229;-39
2023/04/30 06:01:41;;;;;;;5.38;3.50;;;;;;;;;;5095013;28;20224;-40
2023/04/30 06:04:08;;;;;;;5.72;3.30;;;;;;;;;;5094447;28;20218;-40
2023/04/30 06:06:35;;;;;;;6.82;3.30;;;;;;;;;;5094865;28;20214;-39
2023/04/30 06:09:03;;;;;;;6.20;3.53;;;;;;;;;;5094709;28;20710;-40
2023/04/30 06:11:30;;;;;;;7.10;3.70;;;;;;;;;;5094381;28;20554;-40
2023/04/30 06:13:58;;;;;;;8.63;4.53;;;;;;;;;;5091993;28;20701;-40
2023/04/30 06:16:24;;;;;;;5.90;3.53;;;;;;;;;;5089912;28;20217;-39
2023/04/30 06:18:52;;;;;;;8.13;4.40;;;;;;;;;;5091094;28;20320;-40
2023/04/30 06:21:19;;;;;;;6.93;3.58;;;;;;;;;;5089713;28;20229;-40
2023/04/30 06:23:47;;;;;;;5.75;3.72;;;;;;;;;;5090162;28;20260;-41
2023/04/30 06:26:14;;;;;;;7.53;4.07;;;;;;;;;;5091933;28;20579;-40
2023/04/30 06:28:41;;;;;;;7.03;4.13;;;;;;;;;;5089329;28;20582;-40
2023/04/30 06:31:08;;;;;;;9.23;4.25;;;;;;;;;;5092936;28;20226;-40
2023/04/30 06:33:35;;;;;;;7.95;4.25;;;;;;;;;;5087140;28;20238;-40
2023/04/30 06:36:03;;;;;;;6.70;4.03;;;;;;;;;;5082911;28;20278;-42
2023/04/30 06:38:30;;;;;;;9.65;4.32;;;;;;;;;;5093880;27;20279;-42
2023/04/30 06:40:58;;;;;;;6.13;3.92;;;;;;;;;;5091502;28;20230;-40
2023/04/30 06:43:26;;;;;;;8.60;4.32;;;;;;;;;;5072133;27;20217;-41
2023/04/30 06:45:53;;;;;;;6.70;4.28;;;;;;;;;;5091224;28;20684;-40
2023/04/30 06:48:22;;;;;;;9.88;4.55;;;;;;;;;;5093185;28;20225;-41
2023/04/30 06:50:49;;;;;;;7.03;4.10;;;;;;;;;;5090465;28;20648;-44
2023/04/30 06:53:16;;;;;;;7.90;4.65;;;;;;;;;;5088277;28;20687;-43
2023/04/30 06:55:44;;;;;;;9.55;5.53;;;;;;;;;;5087857;28;20249;-42
2023/04/30 06:58:12;;;;;;;7.82;4.78;;;;;;;;;;5093437;28;20215;-42
2023/04/30 07:00:40;;;;;;;9.25;5.03;;;;;;;;;;5093503;28;20218;-42
2023/04/30 07:03:07;;;;;;;8.68;5.20;;;;;;;;;;5093721;28;20231;-42
2023/04/30 07:05:35;;;;;;;9.05;5.65;;;;;;;;;;5092994;28;20214;-41
2023/04/30 07:08:03;;;;;;;8.27;5.43;;;;;;;;;;5091204;28;20225;-43
2023/04/30 07:10:30;;;;;;;9.35;4.97;;;;;;;;;;5093151;28;20220;-42
2023/04/30 07:12:58;;;;;;;7.70;4.82;;;;;;;;;;5091126;28;20237;-40
2023/04/30 07:15:25;;;;;;;9.77;5.32;;;;;;;;;;5094793;28;20226;-39
2023/04/30 07:17:52;;;;;;;10.73;5.40;;;;;;;;;;5093211;28;20222;-41
2023/04/30 07:20:19;;;;;;;11.73;5.72;;;;;;;;;;5092859;28;20579;-39
2023/04/30 07:22:46;;;;;;;14.52;5.93;;;;;;;;;;5092970;28;20222;-40
2023/04/30 07:25:14;;;;;;;10.35;5.78;;;;;;;;;;5086824;28;20313;-40
2023/04/30 07:27:42;;;;;;;9.98;6.22;;;;;;;;;;5074920;28;20585;-40
2023/04/30 07:30:09;;;;;;;12.32;6.30;;;;;;;;;;5074247;28;20277;-40
2023/04/30 07:32:37;;;;;;;8.88;5.53;;;;;;;;;;5083994;28;20234;-40
2023/04/30 07:35:05;;;;;;;8.65;5.25;;;;;;;;;;5086510;28;20295;-40
2023/04/30 07:37:32;;;;;;;9.35;5.85;;;;;;;;;;5094390;28;20721;-40
2023/04/30 07:40:02;;;;;;;9.27;5.93;;;;;;;;;;5093341;28;20261;-40
2023/04/30 07:42:30;;;;;;;9.43;5.43;;;;;;;;;;5091859;28;20199;-39
2023/04/30 07:44:56;;;;;;;11.90;6.07;;;;;;;;;;5074337;28;20615;-40
2023/04/30 07:47:24;;;;;;;11.95;7.05;;;;;;;;;;5074483;28;20207;-40
2023/04/30 07:49:51;;;;;;;11.65;6.28;;;;;;;;;;5073268;28;20565;-40
2023/04/30 07:52:19;;;;;;;9.52;5.97;;;;;;;;;;5073055;28;20207;-40
2023/04/30 07:54:46;;;;;;;12.40;6.90;;;;;;;;;;5071537;28;20227;-41
2023/04/30 07:57:13;;;;;;;14.00;6.82;;;;;;;;;;5074238;28;20667;-40
2023/04/30 07:59:40;;;;;;;12.32;6.45;;;;;;;;;;5085027;28;20226;-40
2023/04/30 08:02:08;;;;;;;10.15;5.97;;;;;;;;;;5074503;28;20203;-39
2023/04/30 08:04:35;;;;;;;12.00;7.18;;;;;;;;;;5074388;28;20245;-40
2023/04/30 08:07:03;;;;;;;10.77;6.45;;;;;;;;;;5074071;28;20203;-39
2023/04/30 08:09:30;;;;;;;14.25;7.82;;;;;;;;;;5074594;28;20282;-39
2023/04/30 08:11:57;;;;;;;11.40;7.63;;;;;;;;;;5073042;28;20204;-40
2023/04/30 08:14:24;;;;;;;11.43;8.10;;;;;;;;;;5074194;28;20284;-40
2023/04/30 08:16:52;;;;;;;11.10;7.05;;;;;;;;;;5074118;28;20210;-39
2023/04/30 08:19:19;;;;;;;11.30;7.38;;;;;;;;;;5073791;28;20235;-41
2023/04/30 08:21:46;;;;;;;11.77;7.38;;;;;;;;;;5074150;28;20207;-40
2023/04/30 08:24:13;;;;;;;11.75;7.15;;;;;;;;;;5072634;28;20207;-39
2023/04/30 08:26:41;;;;;;;13.15;6.93;;;;;;;;;;5074084;28;20200;-40
2023/04/30 08:29:08;;;;;;;12.48;7.00;;;;;;;;;;5073977;28;20260;-39
2023/04/30 08:31:35;;;;;;;10.43;7.30;;;;;;;;;;5073673;28;20663;-40
2023/04/30 08:34:02;;;;;;;10.05;6.88;;;;;;;;;;5073497;28;20596;-40
2023/04/30 08:36:29;;;;;;;11.80;7.35;;;;;;;;;;5073444;28;20249;-39
2023/04/30 08:38:56;;;;;;;10.52;6.97;;;;;;;;;;5073702;28;20234;-39
2023/04/30 08:41:30;;;;;;;12.35;7.55;;;;;;;;;;5073781;28;20199;-39
2023/04/30 08:44:04;;;;;;;9.85;6.78;;;;;;;;;;5072431;28;20667;-39
2023/04/30 08:46:35;;;;;;;11.63;7.18;;;;;;;;;;5073538;28;20214;-39
2023/04/30 08:49:02;;;;;;;12.95;7.45;;;;;;;;;;5072687;28;20199;-39
2023/04/30 08:51:34;;;;;;;12.73;7.50;;;;;;;;;;5073389;28;20211;-39
2023/04/30 08:54:01;;;;;;;12.55;7.15;;;;;;;;;;5073384;28;20226;-39
2023/04/30 08:56:30;;;;;;;11.90;7.40;;;;;;;;;;5073396;28;20660;-39
2023/04/30 08:58:57;;;;;;;12.60;7.82;;;;;;;;;;5073579;28;20207;-39
2023/04/30 09:01:24;;;;;;;12.90;6.82;;;;;;;;;;5073489;28;20222;-41
2023/04/30 09:03:51;;;;;;;13.38;7.57;;;;;;;;;;5078280;28;20702;-39
2023/04/30 09:06:19;;;;;;;13.82;7.05;;;;;;;;;;5092879;28;20205;-39
2023/04/30 09:08:47;;;;;;;11.65;7.30;;;;;;;;;;5103513;28;20285;-41
2023/04/30 09:11:30;;;;;;;11.57;7.47;;;;;;;;;;5089319;28;20251;-41
2023/04/30 09:13:59;;;;;;;11.65;6.90;;;;;;;;;;5085874;28;20641;-39
2023/04/30 09:16:31;;;;;;;10.50;7.13;;;;;;;;;;5091841;28;20287;-41
2023/04/30 09:18:59;;;;;;;10.95;6.88;;;;;;;;;;5091712;28;20279;-42
2023/04/30 09:21:34;;;;;;;10.30;7.03;;;;;;;;;;5087056;28;20230;-42
2023/04/30 09:24:03;;;;;;;14.23;7.10;;;;;;;;;;5091645;28;20226;-40
2023/04/30 09:26:31;;;;;;;10.40;6.55;;;;;;;;;;5088941;28;20206;-40
2023/04/30 09:28:59;;;;;;;10.40;5.97;;;;;;;;;;5086844;28;20229;-43
2023/04/30 09:31:26;;;;;;;8.23;5.10;;;;;;;;;;5088163;28;20240;-44
2023/04/30 09:33:53;;;;;;;8.93;5.45;;;;;;;;;;5089208;28;20226;-42
2023/04/30 09:36:21;;;;;;;10.32;6.22;;;;;;;;;;5089969;28;20233;-43
2023/04/30 09:38:48;;;;;;;9.90;4.78;;;;;;;;;;5090938;28;20320;-39
2023/04/30 09:41:25;;;;;;;8.82;5.53;;;;;;;;;;5091721;28;20223;-42
2023/04/30 09:43:56;;;;;;;8.57;6.00;;;;;;;;;;5092157;28;20226;-42
2023/04/30 09:46:34;;;;;;;11.43;5.50;;;;;;;;;;5092171;28;20687;-42
2023/04/30 09:49:03;;;;;;;12.77;6.35;;;;;;;;;;5091807;28;20234;-42
2023/04/30 09:51:31;;;;;;;8.93;5.75;;;;;;;;;;5090089;28;20223;-42
2023/04/30 09:54:01;;;;;;;8.73;5.88;;;;;;;;;;5092396;28;20238;-42
2023/04/30 09:56:31;;;;;;;10.95;6.43;;;;;;;;;;5092244;28;20215;-41
2023/04/30 09:58:59;;;;;;;9.40;6.13;;;;;;;;;;5087692;28;20227;-42
2023/04/30 10:01:26;;;;;;;9.05;6.00;;;;;;;;;;5090692;28;20234;-40
2023/04/30 10:03:54;;;;;;;12.18;6.75;;;;;;;;;;5091137;28;20218;-42
2023/04/30 10:06:22;;;;;;;10.45;7.10;;;;;;;;;;5092190;28;20230;-43
2023/04/30 10:08:56;;;;;;;11.38;6.47;;;;;;;;;;5090505;28;20215;-40
2023/04/30 10:11:27;;;;;;;10.27;6.35;;;;;;;;;;5091026;28;20219;-41
2023/04/30 10:14:02;;;;;;;12.40;6.97;;;;;;;;;;5091478;28;20246;-41
2023/04/30 10:17:02;;;;;;;10.23;6.82;;;;;;;;;;5092290;28;20238;-41
2023/04/30 10:19:31;;;;;;;11.05;6.22;;;;;;;;;;5092508;28;20230;-42
2023/04/30 10:21:58;;;;;;;10.25;6.75;;;;;;;;;;5092219;28;20733;-44
2023/04/30 10:24:25;;;;;;;11.02;7.13;;;;;;;;;;5093881;28;20314;-41
2023/04/30 10:26:53;;;;;;;9.73;6.38;;;;;;;;;;5095546;28;20230;-42
2023/04/30 10:29:20;;;;;;;13.93;7.28;;;;;;;;;;5092968;28;20230;-43
2023/04/30 10:31:49;;;;;;;14.65;8.05;;;;;;;;;;5093459;28;20756;-43
2023/04/30 10:34:45;;;;;;;11.85;7.70;;;;;;;;;;5094442;28;20276;-43
2023/04/30 10:37:17;;;;;;;12.32;6.90;;;;;;;;;;5095238;28;20218;-42
2023/04/30 10:39:45;;;;;;;10.48;6.40;;;;;;;;;;5094488;28;20230;-43
2023/04/30 10:42:12;;;;;;;10.77;6.35;;;;;;;;;;5093080;28;20698;-42
2023/04/30 10:44:39;;;;;;;13.82;7.18;;;;;;;;;;5094153;28;20225;-43
2023/04/30 10:47:07;;;;;;;11.75;6.95;;;;;;;;;;5109696;28;20226;-42
2023/04/30 10:49:34;;;;;;;11.80;7.47;;;;;;;;;;5092589;28;20764;-43
2023/04/30 10:52:03;;;;;;;11.48;7.47;;;;;;;;;;5094640;28;20264;-42
2023/04/30 10:54:32;;;;;;;12.77;7.57;;;;;;;;;;5094449;28;20241;-42
2023/04/30 10:57:13;;;;;;;11.85;7.38;;;;;;;;;;5093155;28;20276;-42
2023/04/30 10:59:50;;;;;;;10.27;6.60;;;;;;;;;;5089313;28;20234;-43
2023/04/30 11:02:18;;;;;;;11.95;6.93;;;;;;;;;;5074700;28;20232;-42
2023/04/30 11:05:07;;;;;;;13.20;6.70;;;;;;;;;;5089605;28;20215;-41
2023/04/30 11:07:35;;;;;;;12.52;7.38;;;;;;;;;;5094585;28;20571;-42
2023/04/30 11:10:02;;;;;;;9.15;6.00;;;;;;;;;;5094227;28;20219;-41
2023/04/30 11:12:29;;;;;;;8.88;4.07;;;;;;;;;;5108899;28;20226;-42
2023/04/30 11:15:12;;;;;;;5.35;3.65;;;;;;;;;;5102087;28;20230;-42
2023/04/30 11:17:39;;;;;;;6.13;3.53;;;;;;;;;;5115043;28;20222;-42
2023/04/30 11:20:11;;;;;;;6.25;3.65;;;;;;;;;;5097653;28;20633;-41
2023/04/30 11:22:39;;;;;;;5.05;3.53;;;;;;;;;;5095186;28;20234;-42
2023/04/30 11:25:08;;;;;;;6.82;3.40;;;;;;;;;;5095236;28;20194;-41
2023/04/30 11:27:37;;;;;;;4.97;3.42;;;;;;;;;;5095015;28;20671;-41
2023/04/30 11:30:15;;;;;;;3.90;3.13;;;;;;;;;;5093885;28;20191;-41
2023/04/30 11:32:46;;;;;;;6.22;3.25;;;;;;;;;;5086212;28;20198;-42
2023/04/30 11:35:17;;;;;;;4.55;3.17;;;;;;;;;;5092678;28;20299;-42
2023/04/30 11:37:45;;;;;;;5.38;3.28;;;;;;;;;;5090110;28;20578;-42
2023/04/30 11:40:13;;;;;;;4.88;2.75;;;;;;;;;;5093118;28;20215;-43
2023/04/30 11:42:45;;;;;;;5.47;3.30;;;;;;;;;;5093316;28;20204;-42
2023/04/30 11:45:19;;;;;;;5.00;3.08;;;;;;;;;;5093596;28;20191;-41
2023/04/30 11:47:48;;;;;;;4.63;3.03;;;;;;;;;;5091292;28;20198;-41
2023/04/30 11:50:25;;;;;;;3.72;2.90;;;;;;;;;;5093378;28;20191;-42
2023/04/30 11:52:54;;;;;;;3.83;2.90;;;;;;;;;;5091457;28;20187;-42
2023/04/30 11:55:23;;;;;;;7.93;3.28;;;;;;;;;;5093541;28;20211;-42
2023/04/30 11:57:54;;;;;;;4.53;3.05;;;;;;;;;;5093550;28;20297;-42
2023/04/30 12:00:26;;;;;;;3.95;2.63;;;;;;;;;;5094004;28;20183;-42
2023/04/30 12:02:54;;;;;;;3.72;2.30;;;;;;;;;;5088562;28;20203;-42
2023/04/30 12:05:23;;;;;;;3.65;2.55;;;;;;;;;;5093355;28;20704;-41
2023/04/30 12:07:56;;;;;;;4.35;2.40;;;;;;;;;;5094291;28;20206;-41
2023/04/30 12:10:24;;;;;;;3.58;2.35;;;;;;;;;;5091343;28;20239;-41
2023/04/30 12:12:53;;;;;;;4.00;2.55;;;;;;;;;;5093531;28;20724;-41
2023/04/30 12:15:25;;;;;;;2.72;2.25;;;;;;;;;;5092007;28;20227;-41
2023/04/30 12:17:59;;;;;;;4.68;2.30;;;;;;;;;;5084502;28;20559;-41
2023/04/30 12:20:28;;;;;;;5.03;2.72;;;;;;;;;;5090225;28;20198;-41
2023/04/30 12:22:57;;;;;;;2.47;2.05;;;;;;;;;;5092750;28;20202;-42
2023/04/30 12:25:24;;;;;;;4.38;1.98;;;;;;;;;;5092642;28;20290;-41
2023/04/30 12:27:52;;;;;;;2.33;1.77;;;;;;;;;;5091784;28;20252;-41
2023/04/30 12:30:20;;;;;;;3.63;2.33;;;;;;;;;;5092851;28;20203;-43
2023/04/30 12:32:50;;;;;;;2.72;1.77;;;;;;;;;;5089848;28;20203;-42
2023/04/30 12:35:19;;;;;;;4.45;2.33;;;;;;;;;;5092456;28;20219;-41
2023/04/30 12:37:51;;;;;;;2.88;1.55;;;;;;;;;;5087069;28;20202;-42
2023/04/30 12:40:20;;;;;;;3.20;1.35;;;;;;;;;;5089404;28;20313;-41
2023/04/30 12:42:47;;;;;;;3.03;1.70;;;;;;;;;;5093738;28;20198;-41
2023/04/30 12:45:50;;;;;;;2.25;1.80;;;;;;;;;;5069113;28;20214;-42
2023/04/30 12:48:23;;;;;;;3.47;1.23;;;;;;;;;;5073478;28;20530;-42
2023/04/30 12:50:55;;;;;;;3.35;1.40;;;;;;;;;;5090402;28;20224;-41
2023/04/30 12:53:23;;;;;;;1.80;1.50;;;;;;;;;;5089211;28;20218;-41
2023/04/30 12:56:09;;;;;;;3.65;1.40;;;;;;;;;;5092079;28;20214;-41
2023/04/30 12:58:37;;;;;;;3.97;1.60;;;;;;;;;;5088718;28;20217;-41
2023/04/30 13:01:08;;;;;;;1.92;1.38;;;;;;;;;;5092336;28;20202;-42
2023/04/30 13:03:36;;;;;;;1.90;1.25;;;;;;;;;;5091396;28;20191;-42
2023/04/30 13:06:05;;;;;;;2.17;1.30;;;;;;;;;;5090792;28;20629;-41
2023/04/30 13:08:33;;;;;;;3.55;1.27;;;;;;;;;;5092719;28;20198;-42
2023/04/30 13:11:16;;;;;;;1.63;1.15;;;;;;;;;;5089879;28;20199;-41
2023/04/30 13:13:43;;;;;;;2.22;1.25;;;;;;;;;;5072757;28;20215;-41
2023/04/30 13:16:10;;;;;;;3.70;1.40;;;;;;;;;;5090869;28;20233;-42
2023/04/30 13:18:37;;;;;;;1.77;1.40;;;;;;;;;;5092547;28;20195;-42
2023/04/30 13:21:04;;;;;;;1.90;1.20;;;;;;;;;;5091944;28;20194;-41
2023/04/30 13:23:31;;;;;;;3.25;1.45;;;;;;;;;;5087256;28;20198;-42
2023/04/30 13:26:15;;;;;;;2.95;1.55;;;;;;;;;;5093010;28;20201;-42
2023/04/30 13:28:42;;;;;;;1.48;1.35;;;;;;;;;;5078729;28;20215;-43
2023/04/30 13:31:09;;;;;;;2.05;1.17;;;;;;;;;;5091407;28;20202;-42
2023/04/30 13:33:37;;;;;;;2.00;1.10;;;;;;;;;;5092944;28;20211;-41
2023/04/30 13:36:04;;;;;;;1.90;1.10;;;;;;;;;;5092833;28;20670;-42
2023/04/30 13:38:31;;;;;;;2.38;1.10;;;;;;;;;;5092985;28;20214;-42
2023/04/30 13:40:58;;;;;;;1.30;0.93;;;;;;;;;;5093362;28;20198;-42
2023/04/30 13:43:26;;;;;;;2.40;0.93;;;;;;;;;;5093211;28;20203;-41
2023/04/30 13:45:53;;;;;;;2.00;1.20;;;;;;;;;;5092619;28;20232;-42
2023/04/30 13:48:20;;;;;;;3.40;1.10;;;;;;;;;;5093213;28;20217;-41
2023/04/30 13:50:47;;;;;;;1.02;0.93;;;;;;;;;;5088605;28;20207;-42
2023/04/30 13:53:15;;;;;;;2.83;1.10;;;;;;;;;;5095837;28;20225;-41
2023/04/30 13:55:42;;;;;;;1.17;0.93;;;;;;;;;;5096997;28;20260;-41
2023/04/30 13:58:09;;;;;;;1.42;1.13;;;;;;;;;;5088816;28;20213;-41
2023/04/30 14:00:36;;;;;;;1.45;0.88;;;;;;;;;;5092484;28;20284;-42
2023/04/30 14:03:05;;;;;;;2.22;1.20;;;;;;;;;;5091572;28;20202;-41
2023/04/30 14:05:35;;;;;;;2.08;1.08;;;;;;;;;;5085870;28;20289;-43
2023/04/30 14:08:03;;;;;;;2.95;1.05;;;;;;;;;;5090352;28;20191;-43
2023/04/30 14:10:31;;;;;;;2.17;0.95;;;;;;;;;;5091631;28;20187;-43
2023/04/30 14:12:58;;;;;;;1.23;0.88;;;;;;;;;;5092161;28;20206;-43
2023/04/30 14:15:29;;;;;;;1.65;1.00;;;;;;;;;;5089162;28;20731;-42
2023/04/30 14:17:56;;;;;;;2.20;0.80;;;;;;;;;;5092261;28;20252;-42
2023/04/30 14:20:24;;;;;;;1.02;0.85;;;;;;;;;;5092598;28;20191;-41
2023/04/30 14:22:51;;;;;;;1.20;0.80;;;;;;;;;;5093267;28;20206;-42
2023/04/30 14:25:19;;;;;;;0.98;0.80;;;;;;;;;;5095735;28;20199;-41
2023/04/30 14:27:46;;;;;;;1.05;0.80;;;;;;;;;;5096487;28;20569;-42
2023/04/30 14:30:13;;;;;;;1.15;0.70;;;;;;;;;;5096055;28;20191;-41
2023/04/30 14:32:40;;;;;;;1.27;0.70;;;;;;;;;;5096220;28;20212;-42
2023/04/30 14:35:08;;;;;;;0.98;0.90;;;;;;;;;;5096021;28;20214;-41
2023/04/30 14:37:36;;;;;;;0.80;0.80;;;;;;;;;;5089029;28;20214;-41
2023/04/30 14:40:05;;;;;;;0.82;0.70;;;;;;;;;;5080817;28;20233;-41
2023/04/30 14:42:33;;;;;;;1.52;0.88;;;;;;;;;;5096219;28;20350;-42
2023/04/30 14:44:59;;;;;;;2.25;0.70;;;;;;;;;;5095554;28;20665;-41
2023/04/30 14:47:27;;;;;;;1.27;0.70;;;;;;;;;;5096001;28;20213;-41
2023/04/30 14:49:55;;;;;;;0.70;0.50;;;;;;;;;;5095461;28;20194;-41
2023/04/30 14:52:23;;;;;;;2.15;0.50;;;;;;;;;;5095720;28;20215;-41
2023/04/30 14:54:50;;;;;;;1.10;0.70;;;;;;;;;;5095346;28;20728;-41